sensor_id;sensor_type;location;lat;lon;timestamp;P1;durP1;ratioP1;P2;durP2;ratioP2
26484;SDS011;18083;50.560;7.262;2022-08-20T00:00:34;1.85;;;1.75;;
26484;SDS011;18083;50.560;7.262;2022-08-20T00:03:07;5.35;;;2.02;;
26484;SDS011;18083;50.560;7.262;2022-08-20T00:05:35;2.98;;;2.08;;
26484;SDS011;18083;50.560;7.262;2022-08-20T00:08:03;2.00;;;1.70;;
26484;SDS011;18083;50.560;7.262;2022-08-20T00:10:32;2.95;;;2.33;;
26484;SDS011;18083;50.560;7.262;2022-08-20T00:12:59;2.92;;;2.67;;
26484;SDS011;18083;50.560;7.262;2022-08-20T00:15:28;2.22;;;1.98;;
26484;SDS011;18083;50.560;7.262;2022-08-20T00:17:56;2.47;;;2.25;;
26484;SDS011;18083;50.560;7.262;2022-08-20T00:20:25;3.10;;;1.87;;
26484;SDS011;18083;50.560;7.262;2022-08-20T00:22:55;3.45;;;2.50;;
26484;SDS011;18083;50.560;7.262;2022-08-20T00:25:23;4.97;;;2.10;;
26484;SDS011;18083;50.560;7.262;2022-08-20T00:27:50;4.35;;;2.42;;
26484;SDS011;18083;50.560;7.262;2022-08-20T00:30:18;2.45;;;2.12;;
26484;SDS011;18083;50.560;7.262;2022-08-20T00:32:47;3.67;;;1.77;;
26484;SDS011;18083;50.560;7.262;2022-08-20T00:35:15;2.40;;;2.20;;
26484;SDS011;18083;50.560;7.262;2022-08-20T00:37:42;2.52;;;2.33;;
26484;SDS011;18083;50.560;7.262;2022-08-20T00:40:11;2.52;;;2.12;;
26484;SDS011;18083;50.560;7.262;2022-08-20T00:42:43;3.12;;;2.10;;
26484;SDS011;18083;50.560;7.262;2022-08-20T00:45:11;3.15;;;2.40;;
26484;SDS011;18083;50.560;7.262;2022-08-20T00:47:39;2.55;;;2.22;;
26484;SDS011;18083;50.560;7.262;2022-08-20T00:50:09;4.25;;;3.08;;
26484;SDS011;18083;50.560;7.262;2022-08-20T00:52:37;2.70;;;2.50;;
26484;SDS011;18083;50.560;7.262;2022-08-20T00:55:05;4.42;;;2.72;;
26484;SDS011;18083;50.560;7.262;2022-08-20T00:57:34;5.62;;;3.47;;
26484;SDS011;18083;50.560;7.262;2022-08-20T01:00:03;4.70;;;2.92;;
26484;SDS011;18083;50.560;7.262;2022-08-20T01:02:31;3.80;;;2.90;;
26484;SDS011;18083;50.560;7.262;2022-08-20T01:04:58;3.22;;;2.60;;
26484;SDS011;18083;50.560;7.262;2022-08-20T01:07:26;4.40;;;2.90;;
26484;SDS011;18083;50.560;7.262;2022-08-20T01:09:58;3.15;;;2.85;;
26484;SDS011;18083;50.560;7.262;2022-08-20T01:12:27;2.58;;;2.37;;
26484;SDS011;18083;50.560;7.262;2022-08-20T01:14:55;3.95;;;2.95;;
26484;SDS011;18083;50.560;7.262;2022-08-20T01:17:24;3.40;;;3.08;;
26484;SDS011;18083;50.560;7.262;2022-08-20T01:25:43;6.65;;;3.83;;
26484;SDS011;18083;50.560;7.262;2022-08-20T01:28:12;4.10;;;3.70;;
26484;SDS011;18083;50.560;7.262;2022-08-20T01:30:40;3.75;;;3.37;;
26484;SDS011;18083;50.560;7.262;2022-08-20T01:33:08;5.05;;;3.70;;
26484;SDS011;18083;50.560;7.262;2022-08-20T01:35:40;4.28;;;3.87;;
26484;SDS011;18083;50.560;7.262;2022-08-20T01:38:05;3.60;;;3.30;;
26484;SDS011;18083;50.560;7.262;2022-08-20T01:40:37;5.28;;;4.08;;
26484;SDS011;18083;50.560;7.262;2022-08-20T01:43:01;4.12;;;3.67;;
26484;SDS011;18083;50.560;7.262;2022-08-20T01:45:30;5.45;;;3.80;;
26484;SDS011;18083;50.560;7.262;2022-08-20T01:47:59;4.47;;;4.08;;
26484;SDS011;18083;50.560;7.262;2022-08-20T01:50:26;4.30;;;3.90;;
26484;SDS011;18083;50.560;7.262;2022-08-20T01:55:24;5.65;;;4.17;;
26484;SDS011;18083;50.560;7.262;2022-08-20T01:57:52;5.12;;;4.37;;
26484;SDS011;18083;50.560;7.262;2022-08-20T02:00:20;6.03;;;4.95;;
26484;SDS011;18083;50.560;7.262;2022-08-20T02:02:48;7.33;;;5.00;;
26484;SDS011;18083;50.560;7.262;2022-08-20T02:05:16;5.40;;;4.87;;
26484;SDS011;18083;50.560;7.262;2022-08-20T02:07:43;6.95;;;5.53;;
26484;SDS011;18083;50.560;7.262;2022-08-20T02:10:11;6.28;;;4.95;;
26484;SDS011;18083;50.560;7.262;2022-08-20T02:12:39;4.67;;;4.28;;
26484;SDS011;18083;50.560;7.262;2022-08-20T02:15:08;6.00;;;4.40;;
26484;SDS011;18083;50.560;7.262;2022-08-20T02:17:36;5.87;;;5.22;;
26484;SDS011;18083;50.560;7.262;2022-08-20T02:20:09;6.05;;;4.95;;
26484;SDS011;18083;50.560;7.262;2022-08-20T02:22:38;4.28;;;3.87;;
26484;SDS011;18083;50.560;7.262;2022-08-20T02:25:06;5.90;;;3.27;;
26484;SDS011;18083;50.560;7.262;2022-08-20T02:27:34;3.98;;;3.67;;
26484;SDS011;18083;50.560;7.262;2022-08-20T02:30:03;5.53;;;3.10;;
26484;SDS011;18083;50.560;7.262;2022-08-20T02:32:32;2.67;;;2.47;;
26484;SDS011;18083;50.560;7.262;2022-08-20T02:35:01;2.72;;;2.52;;
26484;SDS011;18083;50.560;7.262;2022-08-20T02:37:29;3.40;;;2.40;;
26484;SDS011;18083;50.560;7.262;2022-08-20T02:39:56;5.60;;;2.62;;
26484;SDS011;18083;50.560;7.262;2022-08-20T02:42:24;2.98;;;2.77;;
26484;SDS011;18083;50.560;7.262;2022-08-20T02:44:51;2.00;;;1.90;;
26484;SDS011;18083;50.560;7.262;2022-08-20T02:47:19;2.40;;;2.20;;
26484;SDS011;18083;50.560;7.262;2022-08-20T02:49:46;3.55;;;2.87;;
26484;SDS011;18083;50.560;7.262;2022-08-20T02:52:14;4.10;;;2.62;;
26484;SDS011;18083;50.560;7.262;2022-08-20T02:54:42;5.33;;;3.15;;
26484;SDS011;18083;50.560;7.262;2022-08-20T02:57:12;5.33;;;2.60;;
26484;SDS011;18083;50.560;7.262;2022-08-20T02:59:40;3.17;;;2.98;;
26484;SDS011;18083;50.560;7.262;2022-08-20T03:02:08;4.30;;;2.72;;
26484;SDS011;18083;50.560;7.262;2022-08-20T03:04:37;4.17;;;3.15;;
26484;SDS011;18083;50.560;7.262;2022-08-20T03:07:05;3.35;;;3.05;;
26484;SDS011;18083;50.560;7.262;2022-08-20T03:09:32;3.37;;;3.08;;
26484;SDS011;18083;50.560;7.262;2022-08-20T03:11:59;4.35;;;2.83;;
26484;SDS011;18083;50.560;7.262;2022-08-20T03:14:28;3.65;;;2.70;;
26484;SDS011;18083;50.560;7.262;2022-08-20T03:16:55;3.25;;;2.95;;
26484;SDS011;18083;50.560;7.262;2022-08-20T03:19:22;4.25;;;3.17;;
26484;SDS011;18083;50.560;7.262;2022-08-20T03:21:50;3.67;;;3.17;;
26484;SDS011;18083;50.560;7.262;2022-08-20T03:24:18;3.75;;;2.87;;
26484;SDS011;18083;50.560;7.262;2022-08-20T03:26:45;3.17;;;2.62;;
26484;SDS011;18083;50.560;7.262;2022-08-20T03:29:12;4.90;;;2.95;;
26484;SDS011;18083;50.560;7.262;2022-08-20T03:31:40;3.42;;;2.37;;
26484;SDS011;18083;50.560;7.262;2022-08-20T03:34:07;3.75;;;2.80;;
26484;SDS011;18083;50.560;7.262;2022-08-20T03:36:34;3.25;;;2.72;;
26484;SDS011;18083;50.560;7.262;2022-08-20T03:39:03;3.58;;;2.37;;
26484;SDS011;18083;50.560;7.262;2022-08-20T03:41:31;4.08;;;3.45;;
26484;SDS011;18083;50.560;7.262;2022-08-20T03:43:58;2.33;;;2.05;;
26484;SDS011;18083;50.560;7.262;2022-08-20T03:46:25;4.37;;;2.98;;
26484;SDS011;18083;50.560;7.262;2022-08-20T03:48:53;3.92;;;3.52;;
26484;SDS011;18083;50.560;7.262;2022-08-20T03:51:21;4.62;;;3.35;;
26484;SDS011;18083;50.560;7.262;2022-08-20T03:53:48;3.50;;;3.00;;
26484;SDS011;18083;50.560;7.262;2022-08-20T03:56:15;3.70;;;3.37;;
26484;SDS011;18083;50.560;7.262;2022-08-20T03:58:43;8.93;;;4.05;;
26484;SDS011;18083;50.560;7.262;2022-08-20T04:01:11;5.83;;;3.45;;
26484;SDS011;18083;50.560;7.262;2022-08-20T04:03:39;3.92;;;3.50;;
26484;SDS011;18083;50.560;7.262;2022-08-20T04:06:06;4.50;;;3.95;;
26484;SDS011;18083;50.560;7.262;2022-08-20T04:08:33;4.85;;;3.58;;
26484;SDS011;18083;50.560;7.262;2022-08-20T04:11:01;7.33;;;3.50;;
26484;SDS011;18083;50.560;7.262;2022-08-20T04:13:28;3.10;;;2.83;;
26484;SDS011;18083;50.560;7.262;2022-08-20T04:15:56;4.17;;;2.60;;
26484;SDS011;18083;50.560;7.262;2022-08-20T04:18:24;4.72;;;2.58;;
26484;SDS011;18083;50.560;7.262;2022-08-20T04:20:52;3.27;;;2.67;;
26484;SDS011;18083;50.560;7.262;2022-08-20T04:23:20;2.80;;;2.60;;
26484;SDS011;18083;50.560;7.262;2022-08-20T04:25:47;3.00;;;2.80;;
26484;SDS011;18083;50.560;7.262;2022-08-20T04:28:16;3.05;;;2.47;;
26484;SDS011;18083;50.560;7.262;2022-08-20T04:30:45;3.47;;;2.85;;
26484;SDS011;18083;50.560;7.262;2022-08-20T04:33:12;3.60;;;3.02;;
26484;SDS011;18083;50.560;7.262;2022-08-20T04:35:41;4.65;;;3.00;;
26484;SDS011;18083;50.560;7.262;2022-08-20T04:38:10;3.30;;;3.00;;
26484;SDS011;18083;50.560;7.262;2022-08-20T04:40:38;4.22;;;2.90;;
26484;SDS011;18083;50.560;7.262;2022-08-20T04:43:30;3.70;;;2.80;;
26484;SDS011;18083;50.560;7.262;2022-08-20T04:45:59;3.00;;;2.72;;
26484;SDS011;18083;50.560;7.262;2022-08-20T04:48:27;3.95;;;3.42;;
26484;SDS011;18083;50.560;7.262;2022-08-20T04:50:55;3.58;;;2.25;;
26484;SDS011;18083;50.560;7.262;2022-08-20T04:53:24;3.55;;;3.25;;
26484;SDS011;18083;50.560;7.262;2022-08-20T04:55:52;5.03;;;3.65;;
26484;SDS011;18083;50.560;7.262;2022-08-20T04:58:23;7.67;;;4.45;;
26484;SDS011;18083;50.560;7.262;2022-08-20T05:00:54;4.92;;;3.62;;
26484;SDS011;18083;50.560;7.262;2022-08-20T05:03:21;5.70;;;4.47;;
26484;SDS011;18083;50.560;7.262;2022-08-20T05:05:50;4.25;;;3.05;;
26484;SDS011;18083;50.560;7.262;2022-08-20T05:08:18;3.72;;;3.42;;
26484;SDS011;18083;50.560;7.262;2022-08-20T05:10:45;3.60;;;2.92;;
26484;SDS011;18083;50.560;7.262;2022-08-20T05:13:13;3.15;;;2.85;;
26484;SDS011;18083;50.560;7.262;2022-08-20T05:15:40;3.55;;;2.95;;
26484;SDS011;18083;50.560;7.262;2022-08-20T05:18:10;3.42;;;3.12;;
26484;SDS011;18083;50.560;7.262;2022-08-20T05:20:38;4.87;;;3.33;;
26484;SDS011;18083;50.560;7.262;2022-08-20T05:23:11;3.27;;;2.98;;
26484;SDS011;18083;50.560;7.262;2022-08-20T05:25:35;3.80;;;2.98;;
26484;SDS011;18083;50.560;7.262;2022-08-20T05:28:04;3.58;;;2.92;;
26484;SDS011;18083;50.560;7.262;2022-08-20T05:30:33;5.20;;;3.52;;
26484;SDS011;18083;50.560;7.262;2022-08-20T05:33:01;4.10;;;3.70;;
26484;SDS011;18083;50.560;7.262;2022-08-20T05:35:29;3.20;;;2.90;;
26484;SDS011;18083;50.560;7.262;2022-08-20T05:37:56;3.98;;;2.90;;
26484;SDS011;18083;50.560;7.262;2022-08-20T05:40:23;3.47;;;3.17;;
26484;SDS011;18083;50.560;7.262;2022-08-20T05:42:51;3.95;;;3.25;;
26484;SDS011;18083;50.560;7.262;2022-08-20T05:45:19;2.98;;;2.77;;
26484;SDS011;18083;50.560;7.262;2022-08-20T05:47:47;4.47;;;2.60;;
26484;SDS011;18083;50.560;7.262;2022-08-20T05:50:15;2.83;;;2.62;;
26484;SDS011;18083;50.560;7.262;2022-08-20T05:52:42;2.85;;;2.33;;
26484;SDS011;18083;50.560;7.262;2022-08-20T05:55:11;4.17;;;3.00;;
26484;SDS011;18083;50.560;7.262;2022-08-20T05:57:39;5.15;;;3.08;;
26484;SDS011;18083;50.560;7.262;2022-08-20T06:00:07;4.47;;;2.65;;
26484;SDS011;18083;50.560;7.262;2022-08-20T06:02:35;3.35;;;3.05;;
26484;SDS011;18083;50.560;7.262;2022-08-20T06:05:20;3.00;;;2.60;;
26484;SDS011;18083;50.560;7.262;2022-08-20T06:07:48;3.30;;;2.58;;
26484;SDS011;18083;50.560;7.262;2022-08-20T06:10:17;3.58;;;3.27;;
26484;SDS011;18083;50.560;7.262;2022-08-20T06:12:44;4.35;;;3.45;;
26484;SDS011;18083;50.560;7.262;2022-08-20T06:15:12;2.85;;;2.65;;
26484;SDS011;18083;50.560;7.262;2022-08-20T06:17:39;4.08;;;3.05;;
26484;SDS011;18083;50.560;7.262;2022-08-20T06:20:07;5.20;;;3.27;;
26484;SDS011;18083;50.560;7.262;2022-08-20T06:22:34;3.45;;;3.15;;
26484;SDS011;18083;50.560;7.262;2022-08-20T06:25:04;3.10;;;2.72;;
26484;SDS011;18083;50.560;7.262;2022-08-20T06:27:31;2.92;;;2.30;;
26484;SDS011;18083;50.560;7.262;2022-08-20T06:29:59;3.17;;;2.87;;
26484;SDS011;18083;50.560;7.262;2022-08-20T06:32:26;3.47;;;3.12;;
26484;SDS011;18083;50.560;7.262;2022-08-20T06:34:54;4.35;;;3.30;;
26484;SDS011;18083;50.560;7.262;2022-08-20T06:37:23;3.08;;;2.75;;
26484;SDS011;18083;50.560;7.262;2022-08-20T06:39:50;3.65;;;3.35;;
26484;SDS011;18083;50.560;7.262;2022-08-20T06:42:18;5.53;;;3.50;;
26484;SDS011;18083;50.560;7.262;2022-08-20T06:44:46;3.65;;;3.35;;
26484;SDS011;18083;50.560;7.262;2022-08-20T06:47:15;5.67;;;3.60;;
26484;SDS011;18083;50.560;7.262;2022-08-20T06:49:43;6.37;;;4.45;;
26484;SDS011;18083;50.560;7.262;2022-08-20T06:52:10;4.75;;;4.05;;
26484;SDS011;18083;50.560;7.262;2022-08-20T06:54:38;7.90;;;4.83;;
26484;SDS011;18083;50.560;7.262;2022-08-20T06:57:05;6.92;;;5.95;;
26484;SDS011;18083;50.560;7.262;2022-08-20T06:59:32;7.53;;;5.87;;
26484;SDS011;18083;50.560;7.262;2022-08-20T07:02:00;11.45;;;6.92;;
26484;SDS011;18083;50.560;7.262;2022-08-20T07:04:27;9.18;;;6.65;;
26484;SDS011;18083;50.560;7.262;2022-08-20T07:06:54;8.10;;;6.55;;
26484;SDS011;18083;50.560;7.262;2022-08-20T07:09:23;8.98;;;6.65;;
26484;SDS011;18083;50.560;7.262;2022-08-20T07:11:51;8.73;;;7.12;;
26484;SDS011;18083;50.560;7.262;2022-08-20T07:14:18;9.58;;;7.00;;
26484;SDS011;18083;50.560;7.262;2022-08-20T07:16:46;8.18;;;7.37;;
26484;SDS011;18083;50.560;7.262;2022-08-20T07:19:13;10.65;;;7.33;;
26484;SDS011;18083;50.560;7.262;2022-08-20T07:21:40;10.03;;;8.08;;
26484;SDS011;18083;50.560;7.262;2022-08-20T07:24:08;10.20;;;7.78;;
26484;SDS011;18083;50.560;7.262;2022-08-20T07:26:35;9.23;;;8.20;;
26484;SDS011;18083;50.560;7.262;2022-08-20T07:29:03;10.68;;;7.42;;
26484;SDS011;18083;50.560;7.262;2022-08-20T07:31:30;13.28;;;6.85;;
26484;SDS011;18083;50.560;7.262;2022-08-20T07:34:15;8.48;;;6.60;;
26484;SDS011;18083;50.560;7.262;2022-08-20T07:36:42;8.85;;;7.97;;
26484;SDS011;18083;50.560;7.262;2022-08-20T07:39:10;10.20;;;8.05;;
26484;SDS011;18083;50.560;7.262;2022-08-20T07:41:37;9.13;;;7.42;;
26484;SDS011;18083;50.560;7.262;2022-08-20T07:44:04;9.63;;;6.80;;
26484;SDS011;18083;50.560;7.262;2022-08-20T07:46:32;8.18;;;7.03;;
26484;SDS011;18083;50.560;7.262;2022-08-20T07:48:59;5.30;;;4.80;;
26484;SDS011;18083;50.560;7.262;2022-08-20T07:51:27;5.42;;;4.90;;
26484;SDS011;18083;50.560;7.262;2022-08-20T07:53:54;5.40;;;4.03;;
26484;SDS011;18083;50.560;7.262;2022-08-20T07:56:23;3.67;;;3.10;;
26484;SDS011;18083;50.560;7.262;2022-08-20T07:58:52;2.77;;;2.58;;
26484;SDS011;18083;50.560;7.262;2022-08-20T08:01:22;5.42;;;2.80;;
26484;SDS011;18083;50.560;7.262;2022-08-20T08:03:51;3.37;;;3.12;;
26484;SDS011;18083;50.560;7.262;2022-08-20T08:06:19;5.08;;;2.15;;
26484;SDS011;18083;50.560;7.262;2022-08-20T08:08:47;2.27;;;2.08;;
26484;SDS011;18083;50.560;7.262;2022-08-20T08:11:14;3.50;;;2.62;;
26484;SDS011;18083;50.560;7.262;2022-08-20T08:13:44;5.08;;;2.83;;
26484;SDS011;18083;50.560;7.262;2022-08-20T08:16:12;4.30;;;3.02;;
26484;SDS011;18083;50.560;7.262;2022-08-20T08:18:48;4.78;;;2.58;;
26484;SDS011;18083;50.560;7.262;2022-08-20T08:21:12;2.85;;;2.50;;
26484;SDS011;18083;50.560;7.262;2022-08-20T08:23:39;2.65;;;2.45;;
26484;SDS011;18083;50.560;7.262;2022-08-20T08:26:13;2.52;;;2.35;;
26484;SDS011;18083;50.560;7.262;2022-08-20T08:28:41;3.80;;;2.77;;
26484;SDS011;18083;50.560;7.262;2022-08-20T08:31:11;3.40;;;2.75;;
26484;SDS011;18083;50.560;7.262;2022-08-20T08:33:39;3.08;;;2.52;;
26484;SDS011;18083;50.560;7.262;2022-08-20T08:36:08;1.80;;;1.70;;
26484;SDS011;18083;50.560;7.262;2022-08-20T08:38:36;3.40;;;2.52;;
26484;SDS011;18083;50.560;7.262;2022-08-20T08:41:10;4.47;;;2.25;;
26484;SDS011;18083;50.560;7.262;2022-08-20T08:43:37;2.62;;;2.30;;
26484;SDS011;18083;50.560;7.262;2022-08-20T08:46:06;4.30;;;2.25;;
26484;SDS011;18083;50.560;7.262;2022-08-20T08:48:34;4.83;;;2.10;;
26484;SDS011;18083;50.560;7.262;2022-08-20T08:51:03;4.00;;;2.00;;
26484;SDS011;18083;50.560;7.262;2022-08-20T08:53:35;2.75;;;1.87;;
26484;SDS011;18083;50.560;7.262;2022-08-20T08:56:03;4.47;;;1.80;;
26484;SDS011;18083;50.560;7.262;2022-08-20T08:58:31;2.17;;;1.92;;
26484;SDS011;18083;50.560;7.262;2022-08-20T09:01:07;2.37;;;2.15;;
26484;SDS011;18083;50.560;7.262;2022-08-20T09:03:32;2.58;;;2.27;;
26484;SDS011;18083;50.560;7.262;2022-08-20T09:06:00;5.42;;;2.40;;
26484;SDS011;18083;50.560;7.262;2022-08-20T09:08:34;4.05;;;2.47;;
26484;SDS011;18083;50.560;7.262;2022-08-20T09:11:04;4.53;;;2.80;;
26484;SDS011;18083;50.560;7.262;2022-08-20T09:13:32;3.33;;;2.42;;
26484;SDS011;18083;50.560;7.262;2022-08-20T09:15:59;3.25;;;2.22;;
26484;SDS011;18083;50.560;7.262;2022-08-20T09:18:26;2.85;;;2.58;;
26484;SDS011;18083;50.560;7.262;2022-08-20T09:20:54;2.62;;;2.42;;
26484;SDS011;18083;50.560;7.262;2022-08-20T09:23:21;2.30;;;2.10;;
26484;SDS011;18083;50.560;7.262;2022-08-20T09:25:49;2.30;;;2.08;;
26484;SDS011;18083;50.560;7.262;2022-08-20T09:28:16;3.17;;;2.05;;
26484;SDS011;18083;50.560;7.262;2022-08-20T09:30:44;3.25;;;2.25;;
26484;SDS011;18083;50.560;7.262;2022-08-20T09:33:11;4.97;;;2.52;;
26484;SDS011;18083;50.560;7.262;2022-08-20T09:35:39;1.98;;;1.77;;
26484;SDS011;18083;50.560;7.262;2022-08-20T09:38:06;2.65;;;2.30;;
26484;SDS011;18083;50.560;7.262;2022-08-20T09:40:33;1.87;;;1.77;;
26484;SDS011;18083;50.560;7.262;2022-08-20T09:43:03;4.08;;;2.30;;
26484;SDS011;18083;50.560;7.262;2022-08-20T09:45:30;4.15;;;2.72;;
26484;SDS011;18083;50.560;7.262;2022-08-20T09:47:57;2.40;;;2.20;;
26484;SDS011;18083;50.560;7.262;2022-08-20T09:50:25;2.75;;;1.90;;
26484;SDS011;18083;50.560;7.262;2022-08-20T09:52:53;1.80;;;1.50;;
26484;SDS011;18083;50.560;7.262;2022-08-20T09:55:30;2.35;;;1.80;;
26484;SDS011;18083;50.560;7.262;2022-08-20T09:57:55;4.05;;;2.15;;
26484;SDS011;18083;50.560;7.262;2022-08-20T10:00:23;4.87;;;1.60;;
26484;SDS011;18083;50.560;7.262;2022-08-20T10:02:50;1.62;;;1.47;;
26484;SDS011;18083;50.560;7.262;2022-08-20T10:05:18;2.22;;;1.45;;
26484;SDS011;18083;50.560;7.262;2022-08-20T10:07:45;3.50;;;1.57;;
26484;SDS011;18083;50.560;7.262;2022-08-20T10:10:13;2.02;;;1.57;;
26484;SDS011;18083;50.560;7.262;2022-08-20T10:12:41;2.00;;;1.80;;
26484;SDS011;18083;50.560;7.262;2022-08-20T10:15:08;7.30;;;3.70;;
26484;SDS011;18083;50.560;7.262;2022-08-20T10:17:37;2.47;;;2.00;;
26484;SDS011;18083;50.560;7.262;2022-08-20T10:20:05;2.37;;;2.10;;
26484;SDS011;18083;50.560;7.262;2022-08-20T10:22:33;1.62;;;1.52;;
26484;SDS011;18083;50.560;7.262;2022-08-20T10:25:01;2.58;;;1.52;;
26484;SDS011;18083;50.560;7.262;2022-08-20T10:27:28;3.90;;;1.50;;
26484;SDS011;18083;50.560;7.262;2022-08-20T10:29:55;1.72;;;1.62;;
26484;SDS011;18083;50.560;7.262;2022-08-20T10:32:23;2.92;;;1.80;;
26484;SDS011;18083;50.560;7.262;2022-08-20T10:34:50;3.20;;;2.00;;
26484;SDS011;18083;50.560;7.262;2022-08-20T10:37:19;3.00;;;2.20;;
26484;SDS011;18083;50.560;7.262;2022-08-20T10:39:46;2.52;;;1.57;;
26484;SDS011;18083;50.560;7.262;2022-08-20T10:42:14;1.00;;;0.90;;
26484;SDS011;18083;50.560;7.262;2022-08-20T10:44:41;1.62;;;1.40;;
26484;SDS011;18083;50.560;7.262;2022-08-20T10:47:22;2.58;;;1.40;;
26484;SDS011;18083;50.560;7.262;2022-08-20T10:49:50;1.55;;;1.35;;
26484;SDS011;18083;50.560;7.262;2022-08-20T10:52:18;2.22;;;1.77;;
26484;SDS011;18083;50.560;7.262;2022-08-20T10:54:46;2.62;;;2.20;;
26484;SDS011;18083;50.560;7.262;2022-08-20T10:57:14;3.58;;;2.52;;
26484;SDS011;18083;50.560;7.262;2022-08-20T10:59:42;3.25;;;2.83;;
26484;SDS011;18083;50.560;7.262;2022-08-20T11:02:10;2.42;;;2.22;;
26484;SDS011;18083;50.560;7.262;2022-08-20T11:04:38;2.98;;;2.47;;
26484;SDS011;18083;50.560;7.262;2022-08-20T11:07:15;3.00;;;2.80;;
26484;SDS011;18083;50.560;7.262;2022-08-20T11:09:38;2.92;;;2.62;;
26484;SDS011;18083;50.560;7.262;2022-08-20T11:12:06;2.40;;;2.20;;
26484;SDS011;18083;50.560;7.262;2022-08-20T11:14:33;3.08;;;2.72;;
26484;SDS011;18083;50.560;7.262;2022-08-20T11:17:01;2.77;;;2.50;;
26484;SDS011;18083;50.560;7.262;2022-08-20T11:19:28;1.87;;;1.62;;
26484;SDS011;18083;50.560;7.262;2022-08-20T11:21:55;3.72;;;2.72;;
26484;SDS011;18083;50.560;7.262;2022-08-20T11:24:23;2.70;;;2.50;;
26484;SDS011;18083;50.560;7.262;2022-08-20T11:26:50;2.00;;;1.80;;
26484;SDS011;18083;50.560;7.262;2022-08-20T11:29:18;2.75;;;2.55;;
26484;SDS011;18083;50.560;7.262;2022-08-20T11:31:47;3.05;;;2.37;;
26484;SDS011;18083;50.560;7.262;2022-08-20T11:34:15;3.10;;;2.90;;
26484;SDS011;18083;50.560;7.262;2022-08-20T11:36:42;3.95;;;3.27;;
26484;SDS011;18083;50.560;7.262;2022-08-20T11:39:10;4.65;;;3.47;;
26484;SDS011;18083;50.560;7.262;2022-08-20T11:41:38;3.72;;;3.42;;
26484;SDS011;18083;50.560;7.262;2022-08-20T11:44:05;4.37;;;3.67;;
26484;SDS011;18083;50.560;7.262;2022-08-20T11:46:32;3.40;;;3.10;;
26484;SDS011;18083;50.560;7.262;2022-08-20T11:49:00;4.47;;;2.80;;
26484;SDS011;18083;50.560;7.262;2022-08-20T11:51:28;3.20;;;2.75;;
26484;SDS011;18083;50.560;7.262;2022-08-20T11:53:55;3.20;;;2.90;;
26484;SDS011;18083;50.560;7.262;2022-08-20T11:56:22;4.30;;;3.08;;
26484;SDS011;18083;50.560;7.262;2022-08-20T11:58:50;5.67;;;2.95;;
26484;SDS011;18083;50.560;7.262;2022-08-20T12:01:17;4.75;;;3.65;;
26484;SDS011;18083;50.560;7.262;2022-08-20T12:03:44;3.65;;;3.12;;
26484;SDS011;18083;50.560;7.262;2022-08-20T12:06:12;3.92;;;3.47;;
26484;SDS011;18083;50.560;7.262;2022-08-20T12:08:39;3.77;;;3.45;;
26484;SDS011;18083;50.560;7.262;2022-08-20T12:11:06;4.35;;;3.10;;
26484;SDS011;18083;50.560;7.262;2022-08-20T12:13:34;3.83;;;3.50;;
26484;SDS011;18083;50.560;7.262;2022-08-20T12:16:02;5.97;;;4.15;;
26484;SDS011;18083;50.560;7.262;2022-08-20T12:18:30;5.85;;;4.10;;
26484;SDS011;18083;50.560;7.262;2022-08-20T12:20:57;3.62;;;3.33;;
26484;SDS011;18083;50.560;7.262;2022-08-20T12:23:25;3.65;;;3.25;;
26484;SDS011;18083;50.560;7.262;2022-08-20T12:25:52;4.30;;;3.33;;
26484;SDS011;18083;50.560;7.262;2022-08-20T12:28:20;4.03;;;3.22;;
26484;SDS011;18083;50.560;7.262;2022-08-20T12:30:47;3.90;;;2.95;;
26484;SDS011;18083;50.560;7.262;2022-08-20T12:33:14;4.70;;;2.50;;
26484;SDS011;18083;50.560;7.262;2022-08-20T12:35:42;10.32;;;3.22;;
26484;SDS011;18083;50.560;7.262;2022-08-20T12:38:09;4.67;;;3.22;;
26484;SDS011;18083;50.560;7.262;2022-08-20T12:40:36;3.08;;;2.35;;
26484;SDS011;18083;50.560;7.262;2022-08-20T12:43:04;3.70;;;2.58;;
26484;SDS011;18083;50.560;7.262;2022-08-20T12:45:32;6.47;;;2.60;;
26484;SDS011;18083;50.560;7.262;2022-08-20T12:48:04;4.25;;;2.30;;
26484;SDS011;18083;50.560;7.262;2022-08-20T12:50:31;7.30;;;3.62;;
26484;SDS011;18083;50.560;7.262;2022-08-20T12:52:59;3.40;;;2.77;;
26484;SDS011;18083;50.560;7.262;2022-08-20T12:55:27;6.83;;;2.98;;
26484;SDS011;18083;50.560;7.262;2022-08-20T12:57:56;4.15;;;2.45;;
26484;SDS011;18083;50.560;7.262;2022-08-20T13:00:34;2.95;;;2.27;;
26484;SDS011;18083;50.560;7.262;2022-08-20T13:03:02;3.85;;;2.33;;
26484;SDS011;18083;50.560;7.262;2022-08-20T13:05:30;3.27;;;2.35;;
26484;SDS011;18083;50.560;7.262;2022-08-20T13:07:58;4.25;;;2.90;;
26484;SDS011;18083;50.560;7.262;2022-08-20T13:10:27;8.23;;;3.15;;
26484;SDS011;18083;50.560;7.262;2022-08-20T13:12:54;3.30;;;2.55;;
26484;SDS011;18083;50.560;7.262;2022-08-20T13:15:22;3.85;;;3.00;;
26484;SDS011;18083;50.560;7.262;2022-08-20T13:17:50;6.33;;;2.35;;
26484;SDS011;18083;50.560;7.262;2022-08-20T13:20:17;3.65;;;2.37;;
26484;SDS011;18083;50.560;7.262;2022-08-20T13:22:45;5.50;;;3.67;;
26484;SDS011;18083;50.560;7.262;2022-08-20T13:25:12;3.40;;;3.00;;
26484;SDS011;18083;50.560;7.262;2022-08-20T13:27:40;3.33;;;2.65;;
26484;SDS011;18083;50.560;7.262;2022-08-20T13:30:08;2.90;;;2.60;;
26484;SDS011;18083;50.560;7.262;2022-08-20T13:32:37;4.30;;;2.95;;
26484;SDS011;18083;50.560;7.262;2022-08-20T13:35:04;5.12;;;2.80;;
26484;SDS011;18083;50.560;7.262;2022-08-20T13:37:31;5.40;;;3.00;;
26484;SDS011;18083;50.560;7.262;2022-08-20T13:39:59;5.58;;;3.55;;
26484;SDS011;18083;50.560;7.262;2022-08-20T13:42:26;6.03;;;2.92;;
26484;SDS011;18083;50.560;7.262;2022-08-20T13:44:54;4.83;;;3.62;;
26484;SDS011;18083;50.560;7.262;2022-08-20T13:47:29;7.42;;;3.80;;
26484;SDS011;18083;50.560;7.262;2022-08-20T13:49:58;7.25;;;4.05;;
26484;SDS011;18083;50.560;7.262;2022-08-20T13:52:26;6.85;;;3.52;;
26484;SDS011;18083;50.560;7.262;2022-08-20T13:54:53;9.75;;;3.22;;
26484;SDS011;18083;50.560;7.262;2022-08-20T13:57:21;4.90;;;3.60;;
26484;SDS011;18083;50.560;7.262;2022-08-20T13:59:50;7.45;;;4.40;;
26484;SDS011;18083;50.560;7.262;2022-08-20T14:02:18;4.92;;;3.65;;
26484;SDS011;18083;50.560;7.262;2022-08-20T14:04:46;9.63;;;3.90;;
26484;SDS011;18083;50.560;7.262;2022-08-20T14:07:21;7.20;;;3.90;;
26484;SDS011;18083;50.560;7.262;2022-08-20T14:09:47;12.15;;;3.62;;
26484;SDS011;18083;50.560;7.262;2022-08-20T14:12:15;8.70;;;3.92;;
26484;SDS011;18083;50.560;7.262;2022-08-20T14:14:42;6.08;;;3.25;;
26484;SDS011;18083;50.560;7.262;2022-08-20T14:17:11;7.12;;;3.75;;
26484;SDS011;18083;50.560;7.262;2022-08-20T14:19:39;10.25;;;4.55;;
26484;SDS011;18083;50.560;7.262;2022-08-20T14:22:06;9.50;;;4.05;;
26484;SDS011;18083;50.560;7.262;2022-08-20T14:24:33;7.95;;;4.37;;
26484;SDS011;18083;50.560;7.262;2022-08-20T14:27:04;8.00;;;3.92;;
26484;SDS011;18083;50.560;7.262;2022-08-20T14:29:32;7.60;;;3.62;;
26484;SDS011;18083;50.560;7.262;2022-08-20T14:32:00;9.03;;;3.85;;
26484;SDS011;18083;50.560;7.262;2022-08-20T14:34:27;6.50;;;3.40;;
26484;SDS011;18083;50.560;7.262;2022-08-20T14:36:55;12.00;;;4.10;;
26484;SDS011;18083;50.560;7.262;2022-08-20T14:39:23;7.95;;;3.87;;
26484;SDS011;18083;50.560;7.262;2022-08-20T14:41:50;8.75;;;3.72;;
26484;SDS011;18083;50.560;7.262;2022-08-20T14:44:18;8.50;;;2.95;;
26484;SDS011;18083;50.560;7.262;2022-08-20T14:46:45;7.25;;;4.22;;
26484;SDS011;18083;50.560;7.262;2022-08-20T14:49:12;4.40;;;3.10;;
26484;SDS011;18083;50.560;7.262;2022-08-20T14:51:40;10.98;;;3.52;;
26484;SDS011;18083;50.560;7.262;2022-08-20T14:54:07;6.03;;;2.90;;
26484;SDS011;18083;50.560;7.262;2022-08-20T14:56:34;10.72;;;3.17;;
26484;SDS011;18083;50.560;7.262;2022-08-20T14:59:02;8.23;;;3.70;;
26484;SDS011;18083;50.560;7.262;2022-08-20T15:01:29;6.75;;;3.75;;